sensor_id;sensor_type;location;lat;lon;timestamp;P1;durP1;ratioP1;P2;durP2;ratioP2
462;SDS011;218;51.902;9.542;2023-07-09T00:01:06;6.80;;;6.20;;
462;SDS011;218;51.902;9.542;2023-07-09T00:03:39;6.67;;;6.17;;
462;SDS011;218;51.902;9.542;2023-07-09T00:06:07;7.13;;;6.63;;
462;SDS011;218;51.902;9.542;2023-07-09T00:08:34;6.03;;;5.63;;
462;SDS011;218;51.902;9.542;2023-07-09T00:11:01;6.30;;;5.80;;
462;SDS011;218;51.902;9.542;2023-07-09T00:13:29;6.90;;;6.40;;
462;SDS011;218;51.902;9.542;2023-07-09T00:15:57;6.80;;;6.30;;
462;SDS011;218;51.902;9.542;2023-07-09T00:18:27;6.90;;;6.47;;
462;SDS011;218;51.902;9.542;2023-07-09T00:20:54;6.50;;;6.00;;
462;SDS011;218;51.902;9.542;2023-07-09T00:23:20;7.00;;;6.60;;
462;SDS011;218;51.902;9.542;2023-07-09T00:25:52;7.73;;;7.13;;
462;SDS011;218;51.902;9.542;2023-07-09T00:28:19;7.40;;;6.87;;
462;SDS011;218;51.902;9.542;2023-07-09T00:30:46;6.97;;;6.47;;
462;SDS011;218;51.902;9.542;2023-07-09T00:33:14;6.97;;;6.47;;
462;SDS011;218;51.902;9.542;2023-07-09T00:35:45;6.57;;;6.13;;
462;SDS011;218;51.902;9.542;2023-07-09T00:38:14;6.67;;;6.10;;
462;SDS011;218;51.902;9.542;2023-07-09T00:40:46;7.03;;;6.43;;
462;SDS011;218;51.902;9.542;2023-07-09T00:43:15;6.60;;;6.10;;
462;SDS011;218;51.902;9.542;2023-07-09T00:45:42;7.50;;;6.90;;
462;SDS011;218;51.902;9.542;2023-07-09T00:48:11;7.63;;;7.10;;
462;SDS011;218;51.902;9.542;2023-07-09T00:50:42;6.70;;;6.10;;
462;SDS011;218;51.902;9.542;2023-07-09T00:53:17;7.47;;;6.97;;
462;SDS011;218;51.902;9.542;2023-07-09T00:55:49;7.50;;;6.70;;
462;SDS011;218;51.902;9.542;2023-07-09T00:58:21;7.83;;;7.23;;
462;SDS011;218;51.902;9.542;2023-07-09T01:00:53;7.50;;;6.80;;
462;SDS011;218;51.902;9.542;2023-07-09T01:03:34;7.63;;;7.13;;
462;SDS011;218;51.902;9.542;2023-07-09T01:06:04;6.97;;;6.47;;
462;SDS011;218;51.902;9.542;2023-07-09T01:08:32;7.00;;;6.50;;
462;SDS011;218;51.902;9.542;2023-07-09T01:11:01;7.53;;;6.80;;
462;SDS011;218;51.902;9.542;2023-07-09T01:13:28;7.07;;;6.50;;
462;SDS011;218;51.902;9.542;2023-07-09T01:15:57;7.63;;;6.27;;
462;SDS011;218;51.902;9.542;2023-07-09T01:18:24;6.80;;;6.20;;
462;SDS011;218;51.902;9.542;2023-07-09T01:23:26;6.27;;;5.83;;
462;SDS011;218;51.902;9.542;2023-07-09T01:25:53;7.30;;;6.80;;
462;SDS011;218;51.902;9.542;2023-07-09T01:28:21;6.50;;;6.10;;
462;SDS011;218;51.902;9.542;2023-07-09T01:30:48;7.20;;;6.70;;
462;SDS011;218;51.902;9.542;2023-07-09T01:33:19;7.17;;;6.57;;
462;SDS011;218;51.902;9.542;2023-07-09T01:35:47;7.70;;;7.00;;
462;SDS011;218;51.902;9.542;2023-07-09T01:38:15;7.47;;;6.87;;
462;SDS011;218;51.902;9.542;2023-07-09T01:40:42;6.37;;;5.97;;
462;SDS011;218;51.902;9.542;2023-07-09T01:43:11;6.87;;;6.30;;
462;SDS011;218;51.902;9.542;2023-07-09T01:45:38;6.70;;;6.20;;
462;SDS011;218;51.902;9.542;2023-07-09T01:48:05;6.80;;;6.30;;
462;SDS011;218;51.902;9.542;2023-07-09T01:50:39;7.33;;;6.73;;
462;SDS011;218;51.902;9.542;2023-07-09T01:53:08;7.70;;;7.10;;
462;SDS011;218;51.902;9.542;2023-07-09T01:55:38;6.63;;;6.23;;
462;SDS011;218;51.902;9.542;2023-07-09T01:58:05;6.60;;;6.13;;
462;SDS011;218;51.902;9.542;2023-07-09T02:00:33;7.33;;;6.83;;
462;SDS011;218;51.902;9.542;2023-07-09T02:03:00;6.40;;;6.00;;
462;SDS011;218;51.902;9.542;2023-07-09T02:05:28;6.90;;;6.40;;
462;SDS011;218;51.902;9.542;2023-07-09T02:07:57;7.70;;;7.20;;
462;SDS011;218;51.902;9.542;2023-07-09T02:10:24;6.67;;;6.27;;
462;SDS011;218;51.902;9.542;2023-07-09T02:12:52;7.23;;;6.73;;
462;SDS011;218;51.902;9.542;2023-07-09T02:15:19;6.87;;;6.37;;
462;SDS011;218;51.902;9.542;2023-07-09T02:17:46;6.40;;;5.90;;
462;SDS011;218;51.902;9.542;2023-07-09T02:20:13;6.67;;;6.17;;
462;SDS011;218;51.902;9.542;2023-07-09T02:22:40;6.87;;;6.37;;
462;SDS011;218;51.902;9.542;2023-07-09T02:25:08;6.70;;;6.30;;
462;SDS011;218;51.902;9.542;2023-07-09T02:27:35;7.13;;;6.73;;
462;SDS011;218;51.902;9.542;2023-07-09T02:30:04;7.60;;;7.10;;
462;SDS011;218;51.902;9.542;2023-07-09T02:32:32;6.60;;;6.20;;
462;SDS011;218;51.902;9.542;2023-07-09T02:34:59;8.23;;;7.70;;
462;SDS011;218;51.902;9.542;2023-07-09T02:37:26;8.73;;;6.70;;
462;SDS011;218;51.902;9.542;2023-07-09T02:39:53;6.50;;;6.10;;
462;SDS011;218;51.902;9.542;2023-07-09T02:42:21;6.70;;;6.27;;
462;SDS011;218;51.902;9.542;2023-07-09T02:44:48;7.97;;;7.27;;
462;SDS011;218;51.902;9.542;2023-07-09T02:47:17;6.60;;;6.17;;
462;SDS011;218;51.902;9.542;2023-07-09T02:49:44;6.57;;;6.17;;
462;SDS011;218;51.902;9.542;2023-07-09T02:52:11;7.00;;;6.50;;
462;SDS011;218;51.902;9.542;2023-07-09T02:54:38;7.47;;;6.97;;
462;SDS011;218;51.902;9.542;2023-07-09T02:57:05;7.40;;;6.80;;
462;SDS011;218;51.902;9.542;2023-07-09T02:59:33;6.67;;;6.27;;
462;SDS011;218;51.902;9.542;2023-07-09T03:02:00;7.60;;;7.10;;
462;SDS011;218;51.902;9.542;2023-07-09T03:04:29;7.37;;;6.93;;
462;SDS011;218;51.902;9.542;2023-07-09T03:06:57;6.90;;;6.40;;
462;SDS011;218;51.902;9.542;2023-07-09T03:09:24;7.17;;;6.67;;
462;SDS011;218;51.902;9.542;2023-07-09T03:11:51;7.70;;;7.13;;
462;SDS011;218;51.902;9.542;2023-07-09T03:14:18;7.23;;;6.73;;
462;SDS011;218;51.902;9.542;2023-07-09T03:16:45;7.70;;;7.10;;
462;SDS011;218;51.902;9.542;2023-07-09T03:19:12;6.87;;;6.30;;
462;SDS011;218;51.902;9.542;2023-07-09T03:21:41;6.67;;;6.27;;
462;SDS011;218;51.902;9.542;2023-07-09T03:24:08;7.53;;;7.00;;
462;SDS011;218;51.902;9.542;2023-07-09T03:26:35;6.70;;;6.30;;
462;SDS011;218;51.902;9.542;2023-07-09T03:29:02;7.50;;;6.90;;
462;SDS011;218;51.902;9.542;2023-07-09T03:31:29;7.30;;;6.80;;
462;SDS011;218;51.902;9.542;2023-07-09T03:34:00;8.27;;;7.67;;
462;SDS011;218;51.902;9.542;2023-07-09T03:36:26;6.80;;;6.40;;
462;SDS011;218;51.902;9.542;2023-07-09T03:38:55;6.60;;;6.10;;
462;SDS011;218;51.902;9.542;2023-07-09T03:41:21;7.33;;;6.73;;
462;SDS011;218;51.902;9.542;2023-07-09T03:43:48;6.73;;;6.23;;
462;SDS011;218;51.902;9.542;2023-07-09T03:46:17;7.13;;;6.53;;
462;SDS011;218;51.902;9.542;2023-07-09T03:48:44;7.70;;;7.20;;
462;SDS011;218;51.902;9.542;2023-07-09T03:51:12;6.80;;;6.30;;
462;SDS011;218;51.902;9.542;2023-07-09T03:53:38;7.30;;;6.80;;
462;SDS011;218;51.902;9.542;2023-07-09T03:56:07;7.47;;;6.93;;
462;SDS011;218;51.902;9.542;2023-07-09T03:58:34;7.53;;;6.93;;
462;SDS011;218;51.902;9.542;2023-07-09T04:01:01;6.60;;;6.03;;
462;SDS011;218;51.902;9.542;2023-07-09T04:03:28;8.00;;;7.20;;
462;SDS011;218;51.902;9.542;2023-07-09T04:05:55;7.73;;;7.23;;
462;SDS011;218;51.902;9.542;2023-07-09T04:08:25;7.40;;;6.70;;
462;SDS011;218;51.902;9.542;2023-07-09T04:10:52;7.37;;;6.83;;
462;SDS011;218;51.902;9.542;2023-07-09T04:13:21;6.93;;;6.50;;
462;SDS011;218;51.902;9.542;2023-07-09T04:15:48;7.80;;;7.20;;
462;SDS011;218;51.902;9.542;2023-07-09T04:18:15;5.77;;;5.37;;
462;SDS011;218;51.902;9.542;2023-07-09T04:20:42;7.10;;;6.60;;
462;SDS011;218;51.902;9.542;2023-07-09T04:23:09;7.33;;;6.70;;
462;SDS011;218;51.902;9.542;2023-07-09T04:25:38;7.70;;;7.10;;
462;SDS011;218;51.902;9.542;2023-07-09T04:28:05;6.70;;;6.20;;
462;SDS011;218;51.902;9.542;2023-07-09T04:30:33;7.73;;;7.07;;
462;SDS011;218;51.902;9.542;2023-07-09T04:33:00;7.47;;;7.00;;
462;SDS011;218;51.902;9.542;2023-07-09T04:35:27;6.10;;;5.60;;
462;SDS011;218;51.902;9.542;2023-07-09T04:37:54;7.47;;;6.77;;
462;SDS011;218;51.902;9.542;2023-07-09T04:40:21;7.60;;;6.97;;
462;SDS011;218;51.902;9.542;2023-07-09T04:42:48;6.93;;;6.53;;
462;SDS011;218;51.902;9.542;2023-07-09T04:45:15;6.80;;;6.30;;
462;SDS011;218;51.902;9.542;2023-07-09T04:47:43;7.63;;;7.13;;
462;SDS011;218;51.902;9.542;2023-07-09T04:50:10;7.13;;;6.63;;
462;SDS011;218;51.902;9.542;2023-07-09T04:52:39;7.00;;;6.50;;
462;SDS011;218;51.902;9.542;2023-07-09T04:55:06;7.10;;;6.50;;
462;SDS011;218;51.902;9.542;2023-07-09T04:57:34;6.90;;;6.40;;
462;SDS011;218;51.902;9.542;2023-07-09T05:00:01;6.67;;;6.17;;
462;SDS011;218;51.902;9.542;2023-07-09T05:02:30;7.73;;;7.27;;
462;SDS011;218;51.902;9.542;2023-07-09T05:04:58;8.00;;;7.23;;
462;SDS011;218;51.902;9.542;2023-07-09T05:07:25;8.13;;;7.43;;
462;SDS011;218;51.902;9.542;2023-07-09T05:09:52;7.47;;;6.97;;
462;SDS011;218;51.902;9.542;2023-07-09T05:12:19;7.90;;;7.30;;
462;SDS011;218;51.902;9.542;2023-07-09T05:14:46;8.10;;;7.60;;
462;SDS011;218;51.902;9.542;2023-07-09T05:17:13;7.77;;;7.27;;
462;SDS011;218;51.902;9.542;2023-07-09T05:19:40;7.50;;;7.00;;
462;SDS011;218;51.902;9.542;2023-07-09T05:22:09;9.40;;;8.53;;
462;SDS011;218;51.902;9.542;2023-07-09T05:24:36;7.43;;;7.03;;
462;SDS011;218;51.902;9.542;2023-07-09T05:27:03;8.43;;;7.83;;
462;SDS011;218;51.902;9.542;2023-07-09T05:29:30;8.00;;;7.40;;
462;SDS011;218;51.902;9.542;2023-07-09T05:31:57;8.60;;;7.90;;
462;SDS011;218;51.902;9.542;2023-07-09T05:34:24;10.53;;;9.70;;
462;SDS011;218;51.902;9.542;2023-07-09T05:36:51;10.50;;;9.80;;
462;SDS011;218;51.902;9.542;2023-07-09T05:39:19;11.03;;;10.33;;
462;SDS011;218;51.902;9.542;2023-07-09T05:41:46;10.17;;;9.43;;
462;SDS011;218;51.902;9.542;2023-07-09T05:44:13;9.53;;;8.83;;
462;SDS011;218;51.902;9.542;2023-07-09T05:46:40;9.10;;;8.40;;
462;SDS011;218;51.902;9.542;2023-07-09T05:49:07;9.87;;;8.97;;
462;SDS011;218;51.902;9.542;2023-07-09T05:51:34;10.00;;;9.30;;
462;SDS011;218;51.902;9.542;2023-07-09T05:54:01;9.90;;;9.13;;
462;SDS011;218;51.902;9.542;2023-07-09T05:56:29;8.37;;;7.77;;
462;SDS011;218;51.902;9.542;2023-07-09T05:58:59;7.20;;;6.70;;
462;SDS011;218;51.902;9.542;2023-07-09T06:01:28;9.20;;;8.50;;
462;SDS011;218;51.902;9.542;2023-07-09T06:03:54;8.40;;;7.90;;
462;SDS011;218;51.902;9.542;2023-07-09T06:06:21;9.13;;;8.53;;
462;SDS011;218;51.902;9.542;2023-07-09T06:08:48;7.50;;;7.07;;
462;SDS011;218;51.902;9.542;2023-07-09T06:11:16;7.30;;;6.80;;
462;SDS011;218;51.902;9.542;2023-07-09T06:13:45;7.63;;;7.13;;
462;SDS011;218;51.902;9.542;2023-07-09T06:16:13;8.83;;;8.20;;
462;SDS011;218;51.902;9.542;2023-07-09T06:18:40;8.40;;;7.80;;
462;SDS011;218;51.902;9.542;2023-07-09T06:21:07;8.93;;;8.30;;
462;SDS011;218;51.902;9.542;2023-07-09T06:23:36;7.87;;;7.37;;
462;SDS011;218;51.902;9.542;2023-07-09T06:26:03;8.20;;;7.70;;
462;SDS011;218;51.902;9.542;2023-07-09T06:28:30;8.23;;;7.73;;
462;SDS011;218;51.902;9.542;2023-07-09T06:30:59;8.00;;;7.50;;
462;SDS011;218;51.902;9.542;2023-07-09T06:33:26;8.40;;;7.90;;
462;SDS011;218;51.902;9.542;2023-07-09T06:35:53;9.33;;;8.73;;
462;SDS011;218;51.902;9.542;2023-07-09T06:38:22;9.80;;;9.00;;
462;SDS011;218;51.902;9.542;2023-07-09T06:40:48;8.13;;;7.63;;
462;SDS011;218;51.902;9.542;2023-07-09T06:43:16;9.13;;;8.33;;
462;SDS011;218;51.902;9.542;2023-07-09T06:45:50;8.27;;;7.70;;
462;SDS011;218;51.902;9.542;2023-07-09T06:48:19;8.87;;;8.27;;
462;SDS011;218;51.902;9.542;2023-07-09T06:50:47;8.30;;;7.73;;
462;SDS011;218;51.902;9.542;2023-07-09T06:53:17;8.10;;;7.60;;
462;SDS011;218;51.902;9.542;2023-07-09T06:55:43;8.17;;;7.67;;
462;SDS011;218;51.902;9.542;2023-07-09T06:58:10;8.47;;;7.80;;
462;SDS011;218;51.902;9.542;2023-07-09T07:00:37;8.63;;;8.03;;
462;SDS011;218;51.902;9.542;2023-07-09T07:03:05;8.20;;;7.67;;
462;SDS011;218;51.902;9.542;2023-07-09T07:05:33;7.57;;;7.03;;
462;SDS011;218;51.902;9.542;2023-07-09T07:08:01;8.40;;;7.90;;
462;SDS011;218;51.902;9.542;2023-07-09T07:10:29;8.67;;;8.07;;
462;SDS011;218;51.902;9.542;2023-07-09T07:12:56;8.37;;;7.77;;
462;SDS011;218;51.902;9.542;2023-07-09T07:15:23;8.80;;;8.20;;
462;SDS011;218;51.902;9.542;2023-07-09T07:17:50;8.37;;;7.87;;
462;SDS011;218;51.902;9.542;2023-07-09T07:20:17;7.90;;;7.40;;
462;SDS011;218;51.902;9.542;2023-07-09T07:22:45;8.50;;;8.00;;
462;SDS011;218;51.902;9.542;2023-07-09T07:25:12;8.67;;;8.07;;
462;SDS011;218;51.902;9.542;2023-07-09T07:27:42;9.13;;;8.43;;
462;SDS011;218;51.902;9.542;2023-07-09T07:30:09;8.77;;;8.27;;
462;SDS011;218;51.902;9.542;2023-07-09T07:32:37;8.83;;;8.23;;
462;SDS011;218;51.902;9.542;2023-07-09T07:35:08;8.60;;;8.00;;
462;SDS011;218;51.902;9.542;2023-07-09T07:37:35;8.90;;;8.30;;
462;SDS011;218;51.902;9.542;2023-07-09T07:40:03;8.97;;;8.27;;
462;SDS011;218;51.902;9.542;2023-07-09T07:42:31;8.67;;;8.00;;
462;SDS011;218;51.902;9.542;2023-07-09T07:44:58;8.07;;;7.57;;
462;SDS011;218;51.902;9.542;2023-07-09T07:47:25;8.67;;;8.03;;
462;SDS011;218;51.902;9.542;2023-07-09T07:49:53;7.37;;;6.87;;
462;SDS011;218;51.902;9.542;2023-07-09T07:52:20;8.40;;;7.80;;
462;SDS011;218;51.902;9.542;2023-07-09T07:54:49;8.73;;;8.13;;
462;SDS011;218;51.902;9.542;2023-07-09T07:57:19;8.27;;;7.67;;
462;SDS011;218;51.902;9.542;2023-07-09T07:59:45;8.70;;;8.10;;
462;SDS011;218;51.902;9.542;2023-07-09T08:02:13;8.00;;;7.40;;
462;SDS011;218;51.902;9.542;2023-07-09T08:04:40;7.87;;;7.30;;
462;SDS011;218;51.902;9.542;2023-07-09T08:07:07;8.17;;;7.57;;
462;SDS011;218;51.902;9.542;2023-07-09T08:09:35;8.80;;;8.20;;
462;SDS011;218;51.902;9.542;2023-07-09T08:12:02;8.07;;;7.47;;
462;SDS011;218;51.902;9.542;2023-07-09T08:14:36;8.03;;;7.53;;
462;SDS011;218;51.902;9.542;2023-07-09T08:17:03;8.10;;;7.50;;
462;SDS011;218;51.902;9.542;2023-07-09T08:19:30;7.37;;;6.87;;
462;SDS011;218;51.902;9.542;2023-07-09T08:21:58;8.33;;;7.73;;
462;SDS011;218;51.902;9.542;2023-07-09T08:24:25;7.67;;;7.20;;
462;SDS011;218;51.902;9.542;2023-07-09T08:26:52;8.63;;;7.90;;
462;SDS011;218;51.902;9.542;2023-07-09T08:29:18;8.23;;;7.73;;
462;SDS011;218;51.902;9.542;2023-07-09T08:31:47;7.70;;;7.20;;
462;SDS011;218;51.902;9.542;2023-07-09T08:34:14;7.77;;;7.17;;
462;SDS011;218;51.902;9.542;2023-07-09T08:36:41;8.40;;;7.80;;
462;SDS011;218;51.902;9.542;2023-07-09T08:39:07;7.97;;;7.37;;
462;SDS011;218;51.902;9.542;2023-07-09T08:41:37;8.33;;;7.77;;
462;SDS011;218;51.902;9.542;2023-07-09T08:44:17;7.67;;;7.27;;
462;SDS011;218;51.902;9.542;2023-07-09T08:47:02;8.50;;;7.90;;
462;SDS011;218;51.902;9.542;2023-07-09T08:49:35;8.77;;;8.17;;
462;SDS011;218;51.902;9.542;2023-07-09T08:52:09;8.00;;;7.40;;
462;SDS011;218;51.902;9.542;2023-07-09T08:54:41;7.80;;;7.30;;
462;SDS011;218;51.902;9.542;2023-07-09T08:57:15;8.10;;;7.60;;
462;SDS011;218;51.902;9.542;2023-07-09T08:59:47;8.60;;;8.03;;
462;SDS011;218;51.902;9.542;2023-07-09T09:02:22;7.97;;;7.47;;
462;SDS011;218;51.902;9.542;2023-07-09T09:04:58;7.60;;;7.07;;
462;SDS011;218;51.902;9.542;2023-07-09T09:07:28;7.67;;;7.27;;
462;SDS011;218;51.902;9.542;2023-07-09T09:10:04;7.93;;;7.40;;
462;SDS011;218;51.902;9.542;2023-07-09T09:12:37;9.17;;;8.30;;
462;SDS011;218;51.902;9.542;2023-07-09T09:15:14;7.63;;;7.13;;
462;SDS011;218;51.902;9.542;2023-07-09T09:17:45;7.53;;;7.03;;
462;SDS011;218;51.902;9.542;2023-07-09T09:20:16;8.13;;;7.53;;
462;SDS011;218;51.902;9.542;2023-07-09T09:22:48;7.40;;;6.90;;
462;SDS011;218;51.902;9.542;2023-07-09T09:25:21;8.53;;;8.03;;
462;SDS011;218;51.902;9.542;2023-07-09T09:27:52;8.83;;;8.10;;
462;SDS011;218;51.902;9.542;2023-07-09T09:30:20;8.90;;;8.30;;
462;SDS011;218;51.902;9.542;2023-07-09T09:32:53;7.93;;;7.40;;
462;SDS011;218;51.902;9.542;2023-07-09T09:35:25;7.90;;;7.20;;
462;SDS011;218;51.902;9.542;2023-07-09T09:37:54;8.60;;;7.90;;
462;SDS011;218;51.902;9.542;2023-07-09T09:40:22;7.77;;;7.27;;
462;SDS011;218;51.902;9.542;2023-07-09T09:42:51;8.77;;;8.07;;
462;SDS011;218;51.902;9.542;2023-07-09T09:45:20;7.70;;;7.10;;
462;SDS011;218;51.902;9.542;2023-07-09T09:47:58;7.17;;;6.67;;
462;SDS011;218;51.902;9.542;2023-07-09T09:50:26;8.53;;;7.87;;
462;SDS011;218;51.902;9.542;2023-07-09T09:52:56;8.03;;;7.43;;
462;SDS011;218;51.902;9.542;2023-07-09T09:55:27;7.10;;;6.60;;
462;SDS011;218;51.902;9.542;2023-07-09T09:57:57;7.03;;;6.43;;
462;SDS011;218;51.902;9.542;2023-07-09T10:00:25;7.80;;;7.20;;
462;SDS011;218;51.902;9.542;2023-07-09T10:02:58;7.30;;;6.70;;
462;SDS011;218;51.902;9.542;2023-07-09T10:05:29;7.77;;;7.17;;
462;SDS011;218;51.902;9.542;2023-07-09T10:07:59;8.40;;;7.80;;
462;SDS011;218;51.902;9.542;2023-07-09T10:10:30;7.03;;;6.40;;
462;SDS011;218;51.902;9.542;2023-07-09T10:13:02;7.73;;;7.03;;
462;SDS011;218;51.902;9.542;2023-07-09T10:15:38;6.80;;;6.40;;
462;SDS011;218;51.902;9.542;2023-07-09T10:18:13;8.73;;;8.00;;
462;SDS011;218;51.902;9.542;2023-07-09T10:21:04;7.80;;;7.30;;
462;SDS011;218;51.902;9.542;2023-07-09T10:23:36;8.50;;;7.83;;
462;SDS011;218;51.902;9.542;2023-07-09T10:26:13;8.00;;;7.30;;
462;SDS011;218;51.902;9.542;2023-07-09T10:28:51;9.27;;;8.67;;
462;SDS011;218;51.902;9.542;2023-07-09T10:31:33;9.60;;;8.70;;
462;SDS011;218;51.902;9.542;2023-07-09T10:34:09;8.97;;;8.27;;
462;SDS011;218;51.902;9.542;2023-07-09T10:36:48;9.13;;;8.43;;
462;SDS011;218;51.902;9.542;2023-07-09T10:39:27;8.40;;;7.70;;
462;SDS011;218;51.902;9.542;2023-07-09T10:41:59;8.67;;;8.10;;
462;SDS011;218;51.902;9.542;2023-07-09T10:44:29;8.90;;;8.10;;
462;SDS011;218;51.902;9.542;2023-07-09T10:47:01;8.30;;;7.80;;
462;SDS011;218;51.902;9.542;2023-07-09T10:49:33;9.13;;;8.50;;
462;SDS011;218;51.902;9.542;2023-07-09T10:52:04;8.33;;;7.73;;
462;SDS011;218;51.902;9.542;2023-07-09T10:54:34;8.97;;;8.37;;
462;SDS011;218;51.902;9.542;2023-07-09T10:57:09;8.87;;;8.33;;
462;SDS011;218;51.902;9.542;2023-07-09T10:59:40;9.00;;;8.40;;
462;SDS011;218;51.902;9.542;2023-07-09T11:02:13;9.10;;;8.50;;
462;SDS011;218;51.902;9.542;2023-07-09T11:04:47;9.43;;;8.73;;
462;SDS011;218;51.902;9.542;2023-07-09T11:07:18;9.30;;;8.60;;
462;SDS011;218;51.902;9.542;2023-07-09T11:09:48;9.40;;;8.63;;
462;SDS011;218;51.902;9.542;2023-07-09T11:12:21;9.47;;;8.87;;
462;SDS011;218;51.902;9.542;2023-07-09T11:14:55;9.97;;;9.17;;
462;SDS011;218;51.902;9.542;2023-07-09T11:17:25;9.17;;;8.57;;
462;SDS011;218;51.902;9.542;2023-07-09T11:19:56;9.83;;;9.07;;
462;SDS011;218;51.902;9.542;2023-07-09T11:22:26;9.87;;;9.17;;
462;SDS011;218;51.902;9.542;2023-07-09T11:25:07;9.90;;;9.10;;
462;SDS011;218;51.902;9.542;2023-07-09T11:27:49;9.10;;;8.50;;
462;SDS011;218;51.902;9.542;2023-07-09T11:30:18;10.00;;;8.70;;
462;SDS011;218;51.902;9.542;2023-07-09T11:32:47;9.57;;;8.97;;
462;SDS011;218;51.902;9.542;2023-07-09T11:35:21;9.67;;;8.90;;
462;SDS011;218;51.902;9.542;2023-07-09T11:37:50;11.03;;;10.23;;
462;SDS011;218;51.902;9.542;2023-07-09T11:40:19;9.93;;;8.97;;
462;SDS011;218;51.902;9.542;2023-07-09T11:42:50;9.67;;;9.07;;
462;SDS011;218;51.902;9.542;2023-07-09T11:45:20;10.20;;;9.60;;
462;SDS011;218;51.902;9.542;2023-07-09T11:47:53;9.67;;;9.17;;
462;SDS011;218;51.902;9.542;2023-07-09T11:50:31;9.60;;;8.87;;
462;SDS011;218;51.902;9.542;2023-07-09T11:53:02;9.60;;;8.90;;
462;SDS011;218;51.902;9.542;2023-07-09T11:55:39;8.97;;;8.27;;
462;SDS011;218;51.902;9.542;2023-07-09T11:58:11;9.00;;;8.40;;
462;SDS011;218;51.902;9.542;2023-07-09T12:00:40;9.73;;;9.10;;
462;SDS011;218;51.902;9.542;2023-07-09T12:03:10;9.67;;;8.83;;
462;SDS011;218;51.902;9.542;2023-07-09T12:05:46;9.77;;;9.07;;
462;SDS011;218;51.902;9.542;2023-07-09T12:08:16;9.33;;;8.63;;
462;SDS011;218;51.902;9.542;2023-07-09T12:10:44;9.10;;;8.40;;
462;SDS011;218;51.902;9.542;2023-07-09T12:13:11;9.03;;;8.43;;
462;SDS011;218;51.902;9.542;2023-07-09T12:15:39;10.07;;;9.17;;
462;SDS011;218;51.902;9.542;2023-07-09T12:18:10;9.93;;;9.13;;
462;SDS011;218;51.902;9.542;2023-07-09T12:20:40;10.17;;;9.37;;
462;SDS011;218;51.902;9.542;2023-07-09T12:23:11;9.17;;;8.40;;
462;SDS011;218;51.902;9.542;2023-07-09T12:25:48;8.63;;;7.83;;
462;SDS011;218;51.902;9.542;2023-07-09T12:28:15;8.80;;;8.13;;
462;SDS011;218;51.902;9.542;2023-07-09T12:30:44;8.63;;;8.03;;
462;SDS011;218;51.902;9.542;2023-07-09T12:33:13;8.90;;;8.20;;
462;SDS011;218;51.902;9.542;2023-07-09T12:35:43;8.90;;;8.30;;
462;SDS011;218;51.902;9.542;2023-07-09T12:38:16;10.13;;;9.33;;
462;SDS011;218;51.902;9.542;2023-07-09T12:40:46;7.97;;;7.47;;
462;SDS011;218;51.902;9.542;2023-07-09T12:43:13;9.83;;;8.97;;
462;SDS011;218;51.902;9.542;2023-07-09T12:45:43;8.30;;;7.70;;
462;SDS011;218;51.902;9.542;2023-07-09T12:48:10;9.57;;;8.43;;
462;SDS011;218;51.902;9.542;2023-07-09T12:50:39;8.30;;;7.70;;
462;SDS011;218;51.902;9.542;2023-07-09T12:53:11;9.13;;;8.10;;
462;SDS011;218;51.902;9.542;2023-07-09T12:55:44;7.67;;;7.17;;
462;SDS011;218;51.902;9.542;2023-07-09T12:58:15;9.00;;;7.73;;
462;SDS011;218;51.902;9.542;2023-07-09T13:00:47;9.00;;;8.23;;
462;SDS011;218;51.902;9.542;2023-07-09T13:03:16;8.97;;;8.10;;
462;SDS011;218;51.902;9.542;2023-07-09T13:05:53;9.27;;;8.30;;
462;SDS011;218;51.902;9.542;2023-07-09T13:08:21;8.07;;;7.37;;
462;SDS011;218;51.902;9.542;2023-07-09T13:10:51;8.47;;;7.67;;
462;SDS011;218;51.902;9.542;2023-07-09T13:13:19;8.17;;;7.60;;
462;SDS011;218;51.902;9.542;2023-07-09T13:15:48;8.70;;;8.03;;
462;SDS011;218;51.902;9.542;2023-07-09T13:18:21;8.87;;;8.27;;
462;SDS011;218;51.902;9.542;2023-07-09T13:20:49;8.97;;;8.13;;
462;SDS011;218;51.902;9.542;2023-07-09T13:23:19;8.33;;;7.73;;
462;SDS011;218;51.902;9.542;2023-07-09T13:25:51;8.30;;;7.60;;
462;SDS011;218;51.902;9.542;2023-07-09T13:28:21;9.67;;;8.77;;
462;SDS011;218;51.902;9.542;2023-07-09T13:30:51;8.60;;;8.00;;
462;SDS011;218;51.902;9.542;2023-07-09T13:33:19;8.93;;;8.13;;
462;SDS011;218;51.902;9.542;2023-07-09T13:35:46;8.43;;;7.63;;
462;SDS011;218;51.902;9.542;2023-07-09T13:38:19;8.60;;;7.90;;
462;SDS011;218;51.902;9.542;2023-07-09T13:40:48;12.23;;;8.87;;
462;SDS011;218;51.902;9.542;2023-07-09T13:43:35;8.60;;;7.90;;
462;SDS011;218;51.902;9.542;2023-07-09T13:46:03;8.50;;;7.80;;
462;SDS011;218;51.902;9.542;2023-07-09T13:48:33;8.77;;;8.10;;
462;SDS011;218;51.902;9.542;2023-07-09T13:51:01;9.43;;;8.50;;
462;SDS011;218;51.902;9.542;2023-07-09T13:53:37;9.80;;;9.00;;
462;SDS011;218;51.902;9.542;2023-07-09T13:56:04;8.23;;;7.70;;
462;SDS011;218;51.902;9.542;2023-07-09T13:58:32;8.27;;;7.60;;
462;SDS011;218;51.902;9.542;2023-07-09T14:00:59;9.03;;;8.40;;
462;SDS011;218;51.902;9.542;2023-07-09T14:03:36;9.40;;;8.47;;
462;SDS011;218;51.902;9.542;2023-07-09T14:06:03;9.00;;;8.23;;
462;SDS011;218;51.902;9.542;2023-07-09T14:08:30;8.93;;;8.10;;
462;SDS011;218;51.902;9.542;2023-07-09T14:10:57;9.03;;;8.33;;
462;SDS011;218;51.902;9.542;2023-07-09T14:13:24;9.40;;;8.70;;
462;SDS011;218;51.902;9.542;2023-07-09T14:15:55;9.67;;;7.83;;
462;SDS011;218;51.902;9.542;2023-07-09T14:18:22;8.70;;;8.00;;
462;SDS011;218;51.902;9.542;2023-07-09T14:20:49;8.47;;;7.77;;
462;SDS011;218;51.902;9.542;2023-07-09T14:23:17;10.13;;;9.30;;
462;SDS011;218;51.902;9.542;2023-07-09T14:25:45;9.10;;;8.40;;
462;SDS011;218;51.902;9.542;2023-07-09T14:28:13;8.70;;;8.00;;
462;SDS011;218;51.902;9.542;2023-07-09T14:30:42;8.30;;;7.70;;
462;SDS011;218;51.902;9.542;2023-07-09T14:33:13;9.03;;;7.70;;
462;SDS011;218;51.902;9.542;2023-07-09T14:35:41;7.73;;;7.03;;
462;SDS011;218;51.902;9.542;2023-07-09T14:38:15;8.97;;;8.20;;
462;SDS011;218;51.902;9.542;2023-07-09T14:40:43;8.70;;;7.93;;
462;SDS011;218;51.902;9.542;2023-07-09T14:43:11;8.80;;;8.00;;
462;SDS011;218;51.902;9.542;2023-07-09T14:45:40;8.03;;;7.43;;
462;SDS011;218;51.902;9.542;2023-07-09T14:48:08;7.83;;;7.23;;
462;SDS011;218;51.902;9.542;2023-07-09T14:50:38;9.17;;;8.47;;
462;SDS011;218;51.902;9.542;2023-07-09T14:53:10;8.77;;;8.07;;
462;SDS011;218;51.902;9.542;2023-07-09T14:55:39;8.70;;;7.27;;
462;SDS011;218;51.902;9.542;2023-07-09T14:58:09;7.30;;;6.80;;
462;SDS011;218;51.902;9.542;2023-07-09T15:00:40;8.57;;;7.87;;
462;SDS011;218;51.902;9.542;2023-07-09T15:03:09;8.80;;;8.10;;
462;SDS011;218;51.902;9.542;2023-07-09T15:05:38;8.00;;;7.40;;
462;SDS011;218;51.902;9.542;2023-07-09T15:10:51;8.23;;;7.40;;
462;SDS011;218;51.902;9.542;2023-07-09T15:13:21;8.67;;;7.97;;
462;SDS011;218;51.902;9.542;2023-07-09T15:15:54;8.07;;;7.47;;
462;SDS011;218;51.902;9.542;2023-07-09T15:18:21;7.80;;;7.30;;
462;SDS011;218;51.902;9.542;2023-07-09T15:20:50;8.37;;;7.77;;
462;SDS011;218;51.902;9.542;2023-07-09T15:23:20;7.87;;;7.23;;
462;SDS011;218;51.902;9.542;2023-07-09T15:25:48;8.43;;;7.47;;
462;SDS011;218;51.902;9.542;2023-07-09T15:28:16;8.63;;;7.87;;
462;SDS011;218;51.902;9.542;2023-07-09T15:30:43;8.23;;;7.40;;
462;SDS011;218;51.902;9.542;2023-07-09T15:33:12;8.33;;;7.63;;
462;SDS011;218;51.902;9.542;2023-07-09T15:35:42;8.30;;;7.70;;
462;SDS011;218;51.902;9.542;2023-07-09T15:38:21;8.73;;;7.63;;
462;SDS011;218;51.902;9.542;2023-07-09T15:40:53;8.40;;;7.80;;
462;SDS011;218;51.902;9.542;2023-07-09T15:43:20;7.83;;;7.17;;
462;SDS011;218;51.902;9.542;2023-07-09T15:45:49;8.10;;;7.50;;
462;SDS011;218;51.902;9.542;2023-07-09T15:48:20;7.87;;;7.17;;
462;SDS011;218;51.902;9.542;2023-07-09T15:50:49;7.80;;;7.17;;
462;SDS011;218;51.902;9.542;2023-07-09T15:53:16;8.07;;;7.37;;
462;SDS011;218;51.902;9.542;2023-07-09T15:55:44;8.60;;;7.70;;
462;SDS011;218;51.902;9.542;2023-07-09T15:58:15;9.27;;;7.27;;
462;SDS011;218;51.902;9.542;2023-07-09T16:00:45;8.50;;;7.80;;
462;SDS011;218;51.902;9.542;2023-07-09T16:03:12;8.60;;;8.00;;